Map Display - LEBL to EGCC
(last flight recorded 26-05-2022, 14:07 - Adrian Smith)

Aircraft Weights    Units : Maximums
Passengers :   124  
Cargo : kg 3,800 kg
Suggested Fuel Load : kg 15,682 kg
 
     
 
Dry Operating : 27,448 kg    
Total Payload : 0 kg 15,643 kg
 
Take Off : 34,293 kg 58,105 kg
 
Expected Landing : 30,160 kg 46,720 kg

Dale Moore,  B73Q ,  G-BGJM,  .

Route Distance Previous
Flights
Average
Duration
Average
Fuel Flow
Average
Fuel Use
LEBL - El Prat, Barcelona, Spain
EGCC - Manchester
746 nm 4 02:06 1,937 kg/h 4,133 kg

Current weather :-
2022/05/26 12:32
TAF LEBL 261100Z 2612/2712 20010KT CAVOK TX25/2612Z TN17/2706Z
TEMPO 2617/2621 24008KT
BECMG 2621/2623 33010KT
TEMPO 2705/2709 34010G20KT
BECMG 2711/2712 19010KT
2022/05/26 12:09
TAF EGCC 261103Z 2612/2718 24015G28KT 9999 SCT030 PROB30
TEMPO 2612/2615 4000 RADZ BKN010
BECMG 2618/2621 29009KT
TEMPO 2709/2712 29015G25KT

Back to Virtual Airline